sensor_id;sensor_type;location;lat;lon;timestamp;pressure;altitude;pressure_sealevel;temperature;humidity
21449;BME280;10885;52.830;13.788;2022-07-29T16:37:38;101183.34;;;29.09;30.26
21449;BME280;10885;52.830;13.788;2022-07-29T16:42:40;101171.00;;;29.10;30.24
21449;BME280;10885;52.830;13.788;2022-07-29T16:47:48;101165.56;;;29.28;30.48
21449;BME280;10885;52.830;13.788;2022-07-29T16:52:50;101168.38;;;29.08;30.67
21449;BME280;10885;52.830;13.788;2022-07-29T16:57:53;101171.94;;;29.03;30.57
21449;BME280;10885;52.830;13.788;2022-07-29T17:02:55;101164.31;;;28.73;30.92
21449;BME280;10885;52.830;13.788;2022-07-29T17:07:57;101162.75;;;28.46;31.09
21449;BME280;10885;52.830;13.788;2022-07-29T17:13:00;101163.91;;;27.99;31.56
21449;BME280;10885;52.830;13.788;2022-07-29T17:18:02;101156.19;;;27.54;32.28
21449;BME280;10885;52.830;13.788;2022-07-29T17:23:13;101157.97;;;27.45;32.09
21449;BME280;10885;52.830;13.788;2022-07-29T17:28:16;101161.50;;;27.42;32.16
21449;BME280;10885;52.830;13.788;2022-07-29T17:33:18;101159.78;;;27.18;32.37
21449;BME280;10885;52.830;13.788;2022-07-29T17:38:20;101158.91;;;27.11;32.59
21449;BME280;10885;52.830;13.788;2022-07-29T17:43:23;101155.44;;;26.85;32.01
21449;BME280;10885;52.830;13.788;2022-07-29T17:48:25;101156.31;;;26.61;32.33
21449;BME280;10885;52.830;13.788;2022-07-29T17:53:28;101164.13;;;26.36;32.86
21449;BME280;10885;52.830;13.788;2022-07-29T17:58:30;101172.88;;;26.16;33.34
21449;BME280;10885;52.830;13.788;2022-07-29T18:03:33;101168.44;;;26.06;33.26
21449;BME280;10885;52.830;13.788;2022-07-29T18:08:38;101164.00;;;25.90;33.63
21449;BME280;10885;52.830;13.788;2022-07-29T18:13:40;101170.94;;;25.71;33.35
21449;BME280;10885;52.830;13.788;2022-07-29T18:18:43;101176.97;;;25.56;33.58
21449;BME280;10885;52.830;13.788;2022-07-29T18:23:46;101173.38;;;25.38;33.87
21449;BME280;10885;52.830;13.788;2022-07-29T18:28:51;101179.44;;;25.25;33.99
21449;BME280;10885;52.830;13.788;2022-07-29T18:33:54;101188.09;;;25.15;34.54
21449;BME280;10885;52.830;13.788;2022-07-29T18:39:01;101186.16;;;24.92;34.38
21449;BME280;10885;52.830;13.788;2022-07-29T18:44:03;101185.09;;;24.70;34.59
21449;BME280;10885;52.830;13.788;2022-07-29T18:49:06;101180.63;;;24.58;34.90
21449;BME280;10885;52.830;13.788;2022-07-29T18:54:09;101188.44;;;24.52;34.88
21449;BME280;10885;52.830;13.788;2022-07-29T18:59:11;101194.34;;;24.34;34.83
21449;BME280;10885;52.830;13.788;2022-07-29T19:04:18;101188.97;;;24.22;35.15
21449;BME280;10885;52.830;13.788;2022-07-29T19:09:20;101192.31;;;24.09;35.13
21449;BME280;10885;52.830;13.788;2022-07-29T19:14:22;101206.94;;;23.93;35.33
21449;BME280;10885;52.830;13.788;2022-07-29T19:19:24;101205.94;;;23.80;35.42
21449;BME280;10885;52.830;13.788;2022-07-29T19:24:27;101200.53;;;23.71;35.59
21449;BME280;10885;52.830;13.788;2022-07-29T19:29:30;101216.09;;;23.60;35.75
21449;BME280;10885;52.830;13.788;2022-07-29T19:34:34;101221.22;;;23.52;35.63
21449;BME280;10885;52.830;13.788;2022-07-29T19:39:36;101230.63;;;23.41;35.92
21449;BME280;10885;52.830;13.788;2022-07-29T19:44:38;101224.38;;;23.31;36.01
21449;BME280;10885;52.830;13.788;2022-07-29T19:49:41;101226.03;;;23.25;36.07
21449;BME280;10885;52.830;13.788;2022-07-29T19:54:43;101227.53;;;23.09;36.38
21449;BME280;10885;52.830;13.788;2022-07-29T19:59:45;101229.19;;;23.02;36.53
21449;BME280;10885;52.830;13.788;2022-07-29T20:04:48;101244.69;;;22.94;36.71
21449;BME280;10885;52.830;13.788;2022-07-29T20:09:50;101236.69;;;22.85;36.61
21449;BME280;10885;52.830;13.788;2022-07-29T20:14:55;101233.94;;;22.77;36.65
21449;BME280;10885;52.830;13.788;2022-07-29T20:19:58;101236.41;;;22.70;36.76
21449;BME280;10885;52.830;13.788;2022-07-29T20:25:03;101233.53;;;22.56;36.89
21449;BME280;10885;52.830;13.788;2022-07-29T20:30:06;101234.97;;;22.40;37.08
21449;BME280;10885;52.830;13.788;2022-07-29T20:35:09;101232.09;;;22.26;37.39
21449;BME280;10885;52.830;13.788;2022-07-29T20:40:13;101237.13;;;22.17;37.50
21449;BME280;10885;52.830;13.788;2022-07-29T20:45:15;101234.22;;;22.03;37.57
21449;BME280;10885;52.830;13.788;2022-07-29T20:50:18;101239.31;;;21.97;37.82
21449;BME280;10885;52.830;13.788;2022-07-29T20:55:25;101238.28;;;21.89;37.62
21449;BME280;10885;52.830;13.788;2022-07-29T21:00:28;101240.59;;;21.75;37.79
21449;BME280;10885;52.830;13.788;2022-07-29T21:05:30;101242.28;;;21.73;37.98
21449;BME280;10885;52.830;13.788;2022-07-29T21:10:32;101241.22;;;21.64;37.91
21449;BME280;10885;52.830;13.788;2022-07-29T21:15:35;101240.06;;;21.52;38.15
21449;BME280;10885;52.830;13.788;2022-07-29T21:20:37;101240.75;;;21.43;38.28
21449;BME280;10885;52.830;13.788;2022-07-29T21:25:39;101243.91;;;21.33;38.40
21449;BME280;10885;52.830;13.788;2022-07-29T21:30:42;101253.34;;;21.26;38.52
21449;BME280;10885;52.830;13.788;2022-07-29T21:35:44;101245.47;;;21.23;38.44
21449;BME280;10885;52.830;13.788;2022-07-29T21:41:06;101246.94;;;21.13;38.66
